sensor_id;sensor_type;location;lat;lon;timestamp;P1;durP1;ratioP1;P2;durP2;ratioP2
47021;SDS011;32779;52.264;6.154;2022-11-23T00:00:24;15.45;;;6.90;;
47021;SDS011;32779;52.264;6.154;2022-11-23T00:02:53;15.65;;;6.47;;
47021;SDS011;32779;52.264;6.154;2022-11-23T00:05:20;15.48;;;6.70;;
47021;SDS011;32779;52.264;6.154;2022-11-23T00:07:46;15.77;;;6.60;;
47021;SDS011;32779;52.264;6.154;2022-11-23T00:10:11;13.73;;;7.13;;
47021;SDS011;32779;52.264;6.154;2022-11-23T00:12:37;11.38;;;6.90;;
47021;SDS011;32779;52.264;6.154;2022-11-23T00:15:03;15.75;;;7.78;;
47021;SDS011;32779;52.264;6.154;2022-11-23T00:17:30;20.92;;;7.55;;
47021;SDS011;32779;52.264;6.154;2022-11-23T00:19:56;12.82;;;7.40;;
47021;SDS011;32779;52.264;6.154;2022-11-23T00:22:22;12.85;;;6.85;;
47021;SDS011;32779;52.264;6.154;2022-11-23T00:24:47;12.43;;;6.82;;
47021;SDS011;32779;52.264;6.154;2022-11-23T00:27:13;15.13;;;6.32;;
47021;SDS011;32779;52.264;6.154;2022-11-23T00:29:38;12.18;;;6.90;;
47021;SDS011;32779;52.264;6.154;2022-11-23T00:32:04;12.38;;;7.55;;
47021;SDS011;32779;52.264;6.154;2022-11-23T00:34:29;11.55;;;7.05;;
47021;SDS011;32779;52.264;6.154;2022-11-23T00:36:55;11.50;;;7.28;;
47021;SDS011;32779;52.264;6.154;2022-11-23T00:39:21;15.15;;;7.50;;
47021;SDS011;32779;52.264;6.154;2022-11-23T00:41:46;14.40;;;8.05;;
47021;SDS011;32779;52.264;6.154;2022-11-23T00:44:12;15.13;;;7.97;;
47021;SDS011;32779;52.264;6.154;2022-11-23T00:46:37;13.77;;;6.93;;
47021;SDS011;32779;52.264;6.154;2022-11-23T00:49:03;13.30;;;7.75;;
47021;SDS011;32779;52.264;6.154;2022-11-23T00:51:31;17.35;;;8.02;;
47021;SDS011;32779;52.264;6.154;2022-11-23T00:53:59;13.27;;;8.60;;
47021;SDS011;32779;52.264;6.154;2022-11-23T00:56:25;13.25;;;7.82;;
47021;SDS011;32779;52.264;6.154;2022-11-23T00:58:52;15.68;;;8.25;;
47021;SDS011;32779;52.264;6.154;2022-11-23T01:01:20;10.85;;;7.97;;
47021;SDS011;32779;52.264;6.154;2022-11-23T01:03:48;17.60;;;8.48;;
47021;SDS011;32779;52.264;6.154;2022-11-23T01:06:18;12.63;;;8.25;;
47021;SDS011;32779;52.264;6.154;2022-11-23T01:08:49;17.60;;;9.25;;
47021;SDS011;32779;52.264;6.154;2022-11-23T01:11:25;13.50;;;9.52;;
47021;SDS011;32779;52.264;6.154;2022-11-23T01:13:53;14.52;;;9.55;;
47021;SDS011;32779;52.264;6.154;2022-11-23T01:16:20;16.25;;;9.55;;
47021;SDS011;32779;52.264;6.154;2022-11-23T01:18:57;15.05;;;9.18;;
47021;SDS011;32779;52.264;6.154;2022-11-23T01:21:25;20.33;;;9.95;;
47021;SDS011;32779;52.264;6.154;2022-11-23T01:23:51;18.67;;;9.88;;
47021;SDS011;32779;52.264;6.154;2022-11-23T01:26:17;11.90;;;9.13;;
47021;SDS011;32779;52.264;6.154;2022-11-23T01:28:43;19.40;;;10.45;;
47021;SDS011;32779;52.264;6.154;2022-11-23T01:31:10;17.35;;;10.65;;
47021;SDS011;32779;52.264;6.154;2022-11-23T01:33:54;20.08;;;10.98;;
47021;SDS011;32779;52.264;6.154;2022-11-23T01:36:23;18.00;;;11.07;;
47021;SDS011;32779;52.264;6.154;2022-11-23T01:38:50;18.10;;;11.38;;
47021;SDS011;32779;52.264;6.154;2022-11-23T01:41:17;18.58;;;12.00;;
47021;SDS011;32779;52.264;6.154;2022-11-23T01:43:48;23.65;;;12.70;;
47021;SDS011;32779;52.264;6.154;2022-11-23T01:46:15;22.75;;;13.75;;
47021;SDS011;32779;52.264;6.154;2022-11-23T01:51:43;27.85;;;13.98;;
47021;SDS011;32779;52.264;6.154;2022-11-23T01:54:10;23.73;;;14.40;;
47021;SDS011;32779;52.264;6.154;2022-11-23T01:56:57;25.60;;;14.50;;
47021;SDS011;32779;52.264;6.154;2022-11-23T01:59:27;25.25;;;16.10;;
47021;SDS011;32779;52.264;6.154;2022-11-23T02:01:54;28.65;;;15.57;;
47021;SDS011;32779;52.264;6.154;2022-11-23T02:04:42;25.33;;;15.43;;
47021;SDS011;32779;52.264;6.154;2022-11-23T02:07:08;23.52;;;16.00;;
47021;SDS011;32779;52.264;6.154;2022-11-23T02:09:35;28.05;;;15.80;;
47021;SDS011;32779;52.264;6.154;2022-11-23T02:14:27;23.35;;;15.30;;
47021;SDS011;32779;52.264;6.154;2022-11-23T02:16:54;28.17;;;17.20;;
47021;SDS011;32779;52.264;6.154;2022-11-23T02:20:09;29.90;;;16.65;;
47021;SDS011;32779;52.264;6.154;2022-11-23T02:22:32;29.02;;;16.15;;
47021;SDS011;32779;52.264;6.154;2022-11-23T02:25:11;24.55;;;16.13;;
47021;SDS011;32779;52.264;6.154;2022-11-23T02:27:58;28.73;;;15.98;;
47021;SDS011;32779;52.264;6.154;2022-11-23T02:30:24;27.35;;;16.40;;
47021;SDS011;32779;52.264;6.154;2022-11-23T02:32:50;27.58;;;14.95;;
47021;SDS011;32779;52.264;6.154;2022-11-23T02:35:16;29.88;;;15.73;;
47021;SDS011;32779;52.264;6.154;2022-11-23T02:37:41;26.33;;;15.25;;
47021;SDS011;32779;52.264;6.154;2022-11-23T02:42:44;27.30;;;13.95;;
47021;SDS011;32779;52.264;6.154;2022-11-23T02:48:05;26.50;;;14.13;;
47021;SDS011;32779;52.264;6.154;2022-11-23T02:50:31;32.30;;;14.68;;
47021;SDS011;32779;52.264;6.154;2022-11-23T02:52:57;32.45;;;15.63;;
47021;SDS011;32779;52.264;6.154;2022-11-23T02:55:22;28.42;;;14.45;;
47021;SDS011;32779;52.264;6.154;2022-11-23T02:57:48;29.02;;;15.32;;
47021;SDS011;32779;52.264;6.154;2022-11-23T03:00:14;26.55;;;14.70;;
47021;SDS011;32779;52.264;6.154;2022-11-23T03:02:40;26.27;;;14.40;;
47021;SDS011;32779;52.264;6.154;2022-11-23T03:05:06;34.08;;;14.63;;
47021;SDS011;32779;52.264;6.154;2022-11-23T03:07:32;21.42;;;13.20;;
47021;SDS011;32779;52.264;6.154;2022-11-23T03:09:58;30.60;;;14.40;;
47021;SDS011;32779;52.264;6.154;2022-11-23T03:12:24;32.85;;;13.45;;
47021;SDS011;32779;52.264;6.154;2022-11-23T03:14:49;32.88;;;13.43;;
47021;SDS011;32779;52.264;6.154;2022-11-23T03:17:15;34.53;;;12.93;;
47021;SDS011;32779;52.264;6.154;2022-11-23T03:19:41;19.52;;;12.18;;
47021;SDS011;32779;52.264;6.154;2022-11-23T03:22:06;29.15;;;13.20;;
47021;SDS011;32779;52.264;6.154;2022-11-23T03:24:32;25.70;;;13.23;;
47021;SDS011;32779;52.264;6.154;2022-11-23T03:26:58;22.77;;;11.07;;
47021;SDS011;32779;52.264;6.154;2022-11-23T03:29:23;23.60;;;10.80;;
47021;SDS011;32779;52.264;6.154;2022-11-23T03:31:50;19.05;;;10.85;;
47021;SDS011;32779;52.264;6.154;2022-11-23T03:34:17;20.77;;;10.05;;
47021;SDS011;32779;52.264;6.154;2022-11-23T03:36:42;20.73;;;10.43;;
47021;SDS011;32779;52.264;6.154;2022-11-23T03:39:08;21.58;;;10.52;;
47021;SDS011;32779;52.264;6.154;2022-11-23T03:41:33;23.13;;;10.15;;
47021;SDS011;32779;52.264;6.154;2022-11-23T03:43:59;22.80;;;9.45;;
47021;SDS011;32779;52.264;6.154;2022-11-23T03:46:25;15.65;;;8.82;;
47021;SDS011;32779;52.264;6.154;2022-11-23T03:48:51;16.38;;;8.10;;
47021;SDS011;32779;52.264;6.154;2022-11-23T03:51:16;19.33;;;8.27;;
47021;SDS011;32779;52.264;6.154;2022-11-23T03:53:42;21.52;;;8.10;;
47021;SDS011;32779;52.264;6.154;2022-11-23T03:56:08;18.80;;;7.53;;
47021;SDS011;32779;52.264;6.154;2022-11-23T03:58:33;19.77;;;7.28;;
47021;SDS011;32779;52.264;6.154;2022-11-23T04:00:59;14.93;;;6.85;;
47021;SDS011;32779;52.264;6.154;2022-11-23T04:03:25;15.90;;;6.05;;
47021;SDS011;32779;52.264;6.154;2022-11-23T04:05:51;19.48;;;6.93;;
47021;SDS011;32779;52.264;6.154;2022-11-23T04:08:17;17.73;;;6.25;;
47021;SDS011;32779;52.264;6.154;2022-11-23T04:10:42;14.48;;;6.38;;
47021;SDS011;32779;52.264;6.154;2022-11-23T04:13:08;20.70;;;5.93;;
47021;SDS011;32779;52.264;6.154;2022-11-23T04:15:33;18.50;;;5.90;;
47021;SDS011;32779;52.264;6.154;2022-11-23T04:17:59;21.42;;;5.55;;
47021;SDS011;32779;52.264;6.154;2022-11-23T04:20:24;15.13;;;5.80;;
47021;SDS011;32779;52.264;6.154;2022-11-23T04:22:50;12.43;;;5.20;;
47021;SDS011;32779;52.264;6.154;2022-11-23T04:25:16;19.00;;;5.65;;
47021;SDS011;32779;52.264;6.154;2022-11-23T04:27:41;20.75;;;5.70;;
47021;SDS011;32779;52.264;6.154;2022-11-23T04:30:07;16.83;;;5.47;;
47021;SDS011;32779;52.264;6.154;2022-11-23T04:32:33;19.52;;;5.45;;
47021;SDS011;32779;52.264;6.154;2022-11-23T04:34:59;12.05;;;5.00;;
47021;SDS011;32779;52.264;6.154;2022-11-23T04:37:25;16.55;;;5.32;;
47021;SDS011;32779;52.264;6.154;2022-11-23T04:39:50;17.17;;;4.65;;
47021;SDS011;32779;52.264;6.154;2022-11-23T04:42:16;12.23;;;4.70;;
47021;SDS011;32779;52.264;6.154;2022-11-23T04:44:41;13.00;;;4.32;;
47021;SDS011;32779;52.264;6.154;2022-11-23T04:47:08;16.42;;;5.40;;
47021;SDS011;32779;52.264;6.154;2022-11-23T04:49:34;16.60;;;5.53;;
47021;SDS011;32779;52.264;6.154;2022-11-23T04:51:59;10.88;;;4.68;;
47021;SDS011;32779;52.264;6.154;2022-11-23T04:54:25;20.30;;;5.35;;
47021;SDS011;32779;52.264;6.154;2022-11-23T04:56:50;14.07;;;4.63;;
47021;SDS011;32779;52.264;6.154;2022-11-23T04:59:18;14.85;;;4.47;;
47021;SDS011;32779;52.264;6.154;2022-11-23T05:01:44;19.33;;;5.13;;
47021;SDS011;32779;52.264;6.154;2022-11-23T05:04:09;19.25;;;4.75;;
47021;SDS011;32779;52.264;6.154;2022-11-23T05:06:35;11.88;;;4.68;;
47021;SDS011;32779;52.264;6.154;2022-11-23T05:09:01;13.50;;;4.57;;
47021;SDS011;32779;52.264;6.154;2022-11-23T05:11:26;15.00;;;4.35;;
47021;SDS011;32779;52.264;6.154;2022-11-23T05:13:52;16.33;;;4.82;;
47021;SDS011;32779;52.264;6.154;2022-11-23T05:16:17;24.25;;;5.53;;
47021;SDS011;32779;52.264;6.154;2022-11-23T05:18:43;14.20;;;4.93;;
47021;SDS011;32779;52.264;6.154;2022-11-23T05:21:08;12.30;;;4.85;;
47021;SDS011;32779;52.264;6.154;2022-11-23T05:23:34;14.00;;;4.43;;
47021;SDS011;32779;52.264;6.154;2022-11-23T05:25:59;14.70;;;4.70;;
47021;SDS011;32779;52.264;6.154;2022-11-23T05:28:25;15.50;;;4.30;;
47021;SDS011;32779;52.264;6.154;2022-11-23T05:30:51;17.42;;;4.85;;
47021;SDS011;32779;52.264;6.154;2022-11-23T05:33:17;20.35;;;5.28;;
47021;SDS011;32779;52.264;6.154;2022-11-23T05:35:43;15.90;;;4.97;;
47021;SDS011;32779;52.264;6.154;2022-11-23T05:38:08;20.05;;;4.70;;
47021;SDS011;32779;52.264;6.154;2022-11-23T05:40:34;15.38;;;4.97;;
47021;SDS011;32779;52.264;6.154;2022-11-23T05:43:00;18.52;;;4.68;;
47021;SDS011;32779;52.264;6.154;2022-11-23T05:45:25;18.35;;;5.63;;
47021;SDS011;32779;52.264;6.154;2022-11-23T05:50:21;14.95;;;4.50;;
47021;SDS011;32779;52.264;6.154;2022-11-23T05:52:48;17.80;;;4.63;;
47021;SDS011;32779;52.264;6.154;2022-11-23T05:55:14;18.25;;;5.13;;
47021;SDS011;32779;52.264;6.154;2022-11-23T05:57:40;14.88;;;4.28;;
47021;SDS011;32779;52.264;6.154;2022-11-23T06:00:06;20.95;;;5.28;;
47021;SDS011;32779;52.264;6.154;2022-11-23T06:02:34;22.08;;;5.07;;
47021;SDS011;32779;52.264;6.154;2022-11-23T06:05:00;18.13;;;5.45;;
47021;SDS011;32779;52.264;6.154;2022-11-23T06:07:26;22.70;;;4.82;;
47021;SDS011;32779;52.264;6.154;2022-11-23T06:09:51;17.60;;;4.85;;
47021;SDS011;32779;52.264;6.154;2022-11-23T06:12:17;16.25;;;4.13;;
47021;SDS011;32779;52.264;6.154;2022-11-23T06:14:42;18.35;;;4.15;;
47021;SDS011;32779;52.264;6.154;2022-11-23T06:17:08;21.20;;;4.50;;
47021;SDS011;32779;52.264;6.154;2022-11-23T06:19:33;15.63;;;4.38;;
47021;SDS011;32779;52.264;6.154;2022-11-23T06:22:05;14.60;;;4.63;;
47021;SDS011;32779;52.264;6.154;2022-11-23T06:24:30;13.88;;;3.95;;
47021;SDS011;32779;52.264;6.154;2022-11-23T06:26:56;17.63;;;4.63;;
47021;SDS011;32779;52.264;6.154;2022-11-23T06:29:22;13.73;;;4.18;;
47021;SDS011;32779;52.264;6.154;2022-11-23T06:31:47;22.05;;;4.75;;
47021;SDS011;32779;52.264;6.154;2022-11-23T06:34:13;22.83;;;4.05;;
47021;SDS011;32779;52.264;6.154;2022-11-23T06:36:39;20.23;;;4.43;;
47021;SDS011;32779;52.264;6.154;2022-11-23T06:39:04;21.67;;;4.22;;
47021;SDS011;32779;52.264;6.154;2022-11-23T06:41:30;19.27;;;4.78;;
47021;SDS011;32779;52.264;6.154;2022-11-23T06:43:56;26.15;;;4.40;;
47021;SDS011;32779;52.264;6.154;2022-11-23T06:46:21;17.05;;;4.35;;
47021;SDS011;32779;52.264;6.154;2022-11-23T06:48:47;14.38;;;4.32;;
47021;SDS011;32779;52.264;6.154;2022-11-23T06:51:13;23.63;;;4.60;;
47021;SDS011;32779;52.264;6.154;2022-11-23T06:53:39;17.73;;;3.97;;
47021;SDS011;32779;52.264;6.154;2022-11-23T06:56:06;18.63;;;3.63;;
47021;SDS011;32779;52.264;6.154;2022-11-23T06:58:32;17.95;;;4.18;;
47021;SDS011;32779;52.264;6.154;2022-11-23T07:01:02;18.70;;;4.18;;
47021;SDS011;32779;52.264;6.154;2022-11-23T07:03:30;19.75;;;4.22;;
47021;SDS011;32779;52.264;6.154;2022-11-23T07:05:55;22.42;;;4.35;;
47021;SDS011;32779;52.264;6.154;2022-11-23T07:08:21;21.15;;;4.30;;
47021;SDS011;32779;52.264;6.154;2022-11-23T07:10:47;15.50;;;3.63;;
47021;SDS011;32779;52.264;6.154;2022-11-23T07:13:13;23.60;;;5.18;;
47021;SDS011;32779;52.264;6.154;2022-11-23T07:15:39;22.50;;;5.40;;
47021;SDS011;32779;52.264;6.154;2022-11-23T07:18:05;24.00;;;5.03;;
47021;SDS011;32779;52.264;6.154;2022-11-23T07:23:01;22.00;;;4.00;;
47021;SDS011;32779;52.264;6.154;2022-11-23T07:25:31;20.50;;;4.03;;
47021;SDS011;32779;52.264;6.154;2022-11-23T07:27:59;17.70;;;3.75;;
47021;SDS011;32779;52.264;6.154;2022-11-23T07:30:26;17.60;;;4.18;;
47021;SDS011;32779;52.264;6.154;2022-11-23T07:32:52;21.13;;;4.10;;
47021;SDS011;32779;52.264;6.154;2022-11-23T07:35:18;19.20;;;4.25;;
47021;SDS011;32779;52.264;6.154;2022-11-23T07:37:44;19.33;;;4.00;;
47021;SDS011;32779;52.264;6.154;2022-11-23T07:40:10;19.45;;;4.05;;
47021;SDS011;32779;52.264;6.154;2022-11-23T07:42:36;21.35;;;3.95;;
47021;SDS011;32779;52.264;6.154;2022-11-23T07:45:02;23.58;;;4.05;;
47021;SDS011;32779;52.264;6.154;2022-11-23T07:47:31;23.15;;;4.28;;
47021;SDS011;32779;52.264;6.154;2022-11-23T07:49:57;18.25;;;4.05;;
47021;SDS011;32779;52.264;6.154;2022-11-23T07:52:23;18.70;;;3.70;;
47021;SDS011;32779;52.264;6.154;2022-11-23T07:54:48;24.02;;;4.35;;
47021;SDS011;32779;52.264;6.154;2022-11-23T07:57:14;21.02;;;3.72;;
47021;SDS011;32779;52.264;6.154;2022-11-23T07:59:39;21.75;;;4.07;;
47021;SDS011;32779;52.264;6.154;2022-11-23T08:02:05;26.83;;;4.47;;
47021;SDS011;32779;52.264;6.154;2022-11-23T08:04:33;21.35;;;4.28;;
47021;SDS011;32779;52.264;6.154;2022-11-23T08:06:59;23.30;;;4.05;;
47021;SDS011;32779;52.264;6.154;2022-11-23T08:09:26;19.58;;;3.80;;
47021;SDS011;32779;52.264;6.154;2022-11-23T08:11:52;22.67;;;3.95;;
47021;SDS011;32779;52.264;6.154;2022-11-23T08:14:17;31.08;;;4.35;;
47021;SDS011;32779;52.264;6.154;2022-11-23T08:16:43;30.25;;;4.65;;
47021;SDS011;32779;52.264;6.154;2022-11-23T08:19:11;28.17;;;4.78;;
47021;SDS011;32779;52.264;6.154;2022-11-23T08:21:37;25.13;;;3.72;;
47021;SDS011;32779;52.264;6.154;2022-11-23T08:24:03;23.17;;;4.35;;
47021;SDS011;32779;52.264;6.154;2022-11-23T08:26:29;21.73;;;3.42;;
47021;SDS011;32779;52.264;6.154;2022-11-23T08:28:55;24.67;;;3.60;;
47021;SDS011;32779;52.264;6.154;2022-11-23T08:33:46;19.13;;;3.55;;
47021;SDS011;32779;52.264;6.154;2022-11-23T08:36:12;21.30;;;3.67;;
47021;SDS011;32779;52.264;6.154;2022-11-23T08:38:38;29.02;;;5.50;;
47021;SDS011;32779;52.264;6.154;2022-11-23T08:41:03;24.08;;;4.00;;
47021;SDS011;32779;52.264;6.154;2022-11-23T08:43:29;21.05;;;4.38;;
47021;SDS011;32779;52.264;6.154;2022-11-23T08:45:58;17.92;;;3.72;;
47021;SDS011;32779;52.264;6.154;2022-11-23T08:48:25;20.67;;;3.80;;
47021;SDS011;32779;52.264;6.154;2022-11-23T08:50:51;25.83;;;3.90;;
47021;SDS011;32779;52.264;6.154;2022-11-23T08:53:18;28.02;;;3.95;;
47021;SDS011;32779;52.264;6.154;2022-11-23T08:55:44;16.65;;;3.45;;
47021;SDS011;32779;52.264;6.154;2022-11-23T08:58:09;22.45;;;3.55;;
47021;SDS011;32779;52.264;6.154;2022-11-23T09:00:35;21.50;;;3.47;;
47021;SDS011;32779;52.264;6.154;2022-11-23T09:03:01;25.02;;;4.80;;
47021;SDS011;32779;52.264;6.154;2022-11-23T09:05:27;26.95;;;3.42;;
47021;SDS011;32779;52.264;6.154;2022-11-23T09:10:20;22.47;;;3.87;;
47021;SDS011;32779;52.264;6.154;2022-11-23T09:12:46;24.13;;;3.92;;
47021;SDS011;32779;52.264;6.154;2022-11-23T09:15:12;25.20;;;3.65;;
47021;SDS011;32779;52.264;6.154;2022-11-23T09:17:38;19.08;;;3.75;;
47021;SDS011;32779;52.264;6.154;2022-11-23T09:20:04;19.75;;;3.75;;
47021;SDS011;32779;52.264;6.154;2022-11-23T09:24:55;19.20;;;3.60;;
47021;SDS011;32779;52.264;6.154;2022-11-23T09:27:21;24.17;;;3.50;;
47021;SDS011;32779;52.264;6.154;2022-11-23T09:29:46;20.65;;;3.38;;
47021;SDS011;32779;52.264;6.154;2022-11-23T09:32:12;30.25;;;4.07;;
47021;SDS011;32779;52.264;6.154;2022-11-23T09:34:38;17.33;;;3.50;;
47021;SDS011;32779;52.264;6.154;2022-11-23T09:37:04;23.05;;;4.18;;
47021;SDS011;32779;52.264;6.154;2022-11-23T09:42:09;19.55;;;3.25;;
47021;SDS011;32779;52.264;6.154;2022-11-23T09:47:48;18.52;;;3.00;;
47021;SDS011;32779;52.264;6.154;2022-11-23T09:55:46;25.38;;;3.75;;
47021;SDS011;32779;52.264;6.154;2022-11-23T09:58:18;17.92;;;3.30;;
47021;SDS011;32779;52.264;6.154;2022-11-23T10:03:27;19.70;;;4.32;;
47021;SDS011;32779;52.264;6.154;2022-11-23T10:22:21;19.85;;;3.15;;
47021;SDS011;32779;52.264;6.154;2022-11-23T10:24:54;14.38;;;3.20;;
47021;SDS011;32779;52.264;6.154;2022-11-23T10:27:22;22.52;;;3.10;;
47021;SDS011;32779;52.264;6.154;2022-11-23T10:29:49;19.92;;;3.70;;
47021;SDS011;32779;52.264;6.154;2022-11-23T10:35:05;14.70;;;3.03;;
47021;SDS011;32779;52.264;6.154;2022-11-23T10:37:42;18.40;;;2.95;;
47021;SDS011;32779;52.264;6.154;2022-11-23T10:42:51;21.15;;;3.70;;
47021;SDS011;32779;52.264;6.154;2022-11-23T10:45:23;15.48;;;2.90;;
47021;SDS011;32779;52.264;6.154;2022-11-23T10:47:51;17.17;;;2.70;;
47021;SDS011;32779;52.264;6.154;2022-11-23T10:50:28;14.68;;;2.78;;
47021;SDS011;32779;52.264;6.154;2022-11-23T10:52:57;17.30;;;3.00;;
47021;SDS011;32779;52.264;6.154;2022-11-23T10:55:26;21.00;;;3.92;;
47021;SDS011;32779;52.264;6.154;2022-11-23T10:57:54;15.13;;;2.90;;
47021;SDS011;32779;52.264;6.154;2022-11-23T11:00:21;15.18;;;2.55;;
47021;SDS011;32779;52.264;6.154;2022-11-23T11:02:50;16.52;;;2.72;;
47021;SDS011;32779;52.264;6.154;2022-11-23T11:05:29;11.20;;;2.55;;
47021;SDS011;32779;52.264;6.154;2022-11-23T11:08:12;15.35;;;2.65;;
47021;SDS011;32779;52.264;6.154;2022-11-23T11:15:57;18.63;;;2.97;;
47021;SDS011;32779;52.264;6.154;2022-11-23T11:18:33;16.25;;;2.70;;
47021;SDS011;32779;52.264;6.154;2022-11-23T11:21:05;11.40;;;2.30;;
47021;SDS011;32779;52.264;6.154;2022-11-23T11:23:41;11.57;;;3.70;;
47021;SDS011;32779;52.264;6.154;2022-11-23T11:26:18;16.02;;;3.00;;
47021;SDS011;32779;52.264;6.154;2022-11-23T11:28:50;11.65;;;2.75;;
47021;SDS011;32779;52.264;6.154;2022-11-23T11:34:24;15.77;;;3.08;;
47021;SDS011;32779;52.264;6.154;2022-11-23T11:36:58;16.80;;;2.88;;
47021;SDS011;32779;52.264;6.154;2022-11-23T11:39:31;15.77;;;2.13;;
47021;SDS011;32779;52.264;6.154;2022-11-23T11:42:35;11.80;;;2.53;;
47021;SDS011;32779;52.264;6.154;2022-11-23T11:47:43;13.15;;;2.45;;
47021;SDS011;32779;52.264;6.154;2022-11-23T11:50:18;14.57;;;2.20;;
47021;SDS011;32779;52.264;6.154;2022-11-23T11:52:50;16.65;;;2.42;;
47021;SDS011;32779;52.264;6.154;2022-11-23T11:55:25;11.10;;;1.95;;
47021;SDS011;32779;52.264;6.154;2022-11-23T11:58:18;14.57;;;2.25;;
47021;SDS011;32779;52.264;6.154;2022-11-23T12:00:45;18.20;;;2.70;;
47021;SDS011;32779;52.264;6.154;2022-11-23T12:05:51;14.20;;;2.20;;
47021;SDS011;32779;52.264;6.154;2022-11-23T12:11:10;11.70;;;2.20;;
47021;SDS011;32779;52.264;6.154;2022-11-23T12:13:37;14.82;;;2.60;;
47021;SDS011;32779;52.264;6.154;2022-11-23T12:16:13;15.10;;;2.20;;
47021;SDS011;32779;52.264;6.154;2022-11-23T12:27:33;13.25;;;2.97;;
47021;SDS011;32779;52.264;6.154;2022-11-23T12:30:30;16.92;;;2.58;;
47021;SDS011;32779;52.264;6.154;2022-11-23T12:42:21;11.23;;;1.75;;
47021;SDS011;32779;52.264;6.154;2022-11-23T12:44:54;13.50;;;2.20;;
47021;SDS011;32779;52.264;6.154;2022-11-23T12:50:32;13.40;;;2.22;;
47021;SDS011;32779;52.264;6.154;2022-11-23T12:55:49;10.02;;;1.92;;
47021;SDS011;32779;52.264;6.154;2022-11-23T12:58:28;10.38;;;2.33;;
47021;SDS011;32779;52.264;6.154;2022-11-23T13:00:56;9.13;;;2.40;;
47021;SDS011;32779;52.264;6.154;2022-11-23T13:06:46;13.70;;;2.40;;
47021;SDS011;32779;52.264;6.154;2022-11-23T13:09:28;12.23;;;2.10;;
47021;SDS011;32779;52.264;6.154;2022-11-23T13:14:34;13.60;;;1.90;;
47021;SDS011;32779;52.264;6.154;2022-11-23T13:17:43;11.98;;;1.88;;
47021;SDS011;32779;52.264;6.154;2022-11-23T13:22:52;12.25;;;1.75;;
47021;SDS011;32779;52.264;6.154;2022-11-23T13:25:25;7.53;;;1.60;;
47021;SDS011;32779;52.264;6.154;2022-11-23T13:30:23;10.57;;;1.92;;
47021;SDS011;32779;52.264;6.154;2022-11-23T13:40:39;13.38;;;1.98;;
47021;SDS011;32779;52.264;6.154;2022-11-23T13:43:14;12.60;;;1.60;;
47021;SDS011;32779;52.264;6.154;2022-11-23T13:45:42;10.95;;;2.10;;
47021;SDS011;32779;52.264;6.154;2022-11-23T13:50:34;13.73;;;1.80;;
47021;SDS011;32779;52.264;6.154;2022-11-23T13:53:02;9.00;;;2.05;;
47021;SDS011;32779;52.264;6.154;2022-11-23T13:55:42;7.53;;;2.05;;
47021;SDS011;32779;52.264;6.154;2022-11-23T14:00:56;11.95;;;2.25;;
47021;SDS011;32779;52.264;6.154;2022-11-23T14:14:26;8.77;;;2.03;;
47021;SDS011;32779;52.264;6.154;2022-11-23T14:20:04;5.47;;;2.00;;
47021;SDS011;32779;52.264;6.154;2022-11-23T14:22:48;11.73;;;2.30;;
47021;SDS011;32779;52.264;6.154;2022-11-23T14:25:33;9.80;;;1.88;;
47021;SDS011;32779;52.264;6.154;2022-11-23T14:33:53;12.10;;;2.13;;
47021;SDS011;32779;52.264;6.154;2022-11-23T14:42:22;8.65;;;2.20;;
47021;SDS011;32779;52.264;6.154;2022-11-23T14:44:50;10.55;;;2.30;;
47021;SDS011;32779;52.264;6.154;2022-11-23T14:47:24;16.00;;;2.45;;
47021;SDS011;32779;52.264;6.154;2022-11-23T14:49:51;13.45;;;2.45;;
47021;SDS011;32779;52.264;6.154;2022-11-23T14:52:18;7.25;;;1.77;;
47021;SDS011;32779;52.264;6.154;2022-11-23T14:54:50;12.38;;;2.13;;
47021;SDS011;32779;52.264;6.154;2022-11-23T14:57:21;14.55;;;2.47;;
47021;SDS011;32779;52.264;6.154;2022-11-23T14:59:54;22.25;;;2.60;;
47021;SDS011;32779;52.264;6.154;2022-11-23T15:02:38;13.13;;;2.67;;
47021;SDS011;32779;52.264;6.154;2022-11-23T15:05:06;10.70;;;2.40;;
47021;SDS011;32779;52.264;6.154;2022-11-23T15:10:41;14.45;;;2.72;;
47021;SDS011;32779;52.264;6.154;2022-11-23T15:13:19;10.60;;;2.72;;
47021;SDS011;32779;52.264;6.154;2022-11-23T15:15:50;10.85;;;3.20;;
47021;SDS011;32779;52.264;6.154;2022-11-23T15:18:52;12.75;;;3.85;;
47021;SDS011;32779;52.264;6.154;2022-11-23T15:21:16;11.48;;;2.97;;
47021;SDS011;32779;52.264;6.154;2022-11-23T15:23:48;15.63;;;3.00;;
47021;SDS011;32779;52.264;6.154;2022-11-23T15:26:28;10.88;;;2.83;;
47021;SDS011;32779;52.264;6.154;2022-11-23T15:28:55;11.68;;;3.78;;
47021;SDS011;32779;52.264;6.154;2022-11-23T15:33:47;8.93;;;2.30;;
47021;SDS011;32779;52.264;6.154;2022-11-23T15:36:14;11.27;;;2.65;;
47021;SDS011;32779;52.264;6.154;2022-11-23T15:38:43;11.38;;;2.72;;
47021;SDS011;32779;52.264;6.154;2022-11-23T15:41:08;13.32;;;2.83;;
47021;SDS011;32779;52.264;6.154;2022-11-23T15:43:34;8.15;;;2.22;;
47021;SDS011;32779;52.264;6.154;2022-11-23T15:46:01;12.00;;;2.55;;
47021;SDS011;32779;52.264;6.154;2022-11-23T15:48:35;11.93;;;2.83;;
47021;SDS011;32779;52.264;6.154;2022-11-23T15:53:29;12.52;;;3.03;;
47021;SDS011;32779;52.264;6.154;2022-11-23T15:55:58;12.27;;;2.83;;
47021;SDS011;32779;52.264;6.154;2022-11-23T15:58:26;19.50;;;2.55;;
47021;SDS011;32779;52.264;6.154;2022-11-23T16:00:55;10.57;;;2.80;;
47021;SDS011;32779;52.264;6.154;2022-11-23T16:03:27;9.68;;;3.00;;
47021;SDS011;32779;52.264;6.154;2022-11-23T16:06:14;14.98;;;3.33;;
47021;SDS011;32779;52.264;6.154;2022-11-23T16:08:41;12.07;;;3.00;;
47021;SDS011;32779;52.264;6.154;2022-11-23T16:11:20;12.35;;;2.75;;
47021;SDS011;32779;52.264;6.154;2022-11-23T16:13:51;9.13;;;3.03;;
47021;SDS011;32779;52.264;6.154;2022-11-23T16:16:17;27.25;;;8.35;;
47021;SDS011;32779;52.264;6.154;2022-11-23T16:18:46;23.73;;;10.75;;
47021;SDS011;32779;52.264;6.154;2022-11-23T16:21:16;69.78;;;37.55;;
47021;SDS011;32779;52.264;6.154;2022-11-23T16:23:44;11.45;;;6.25;;
47021;SDS011;32779;52.264;6.154;2022-11-23T16:26:15;13.38;;;5.07;;
47021;SDS011;32779;52.264;6.154;2022-11-23T16:28:48;7.55;;;3.45;;
47021;SDS011;32779;52.264;6.154;2022-11-23T16:31:25;11.43;;;3.58;;
47021;SDS011;32779;52.264;6.154;2022-11-23T16:33:51;18.27;;;3.95;;
47021;SDS011;32779;52.264;6.154;2022-11-23T16:36:17;12.77;;;3.38;;
47021;SDS011;32779;52.264;6.154;2022-11-23T16:38:42;17.45;;;5.38;;
47021;SDS011;32779;52.264;6.154;2022-11-23T16:43:34;12.30;;;3.13;;
47021;SDS011;32779;52.264;6.154;2022-11-23T16:46:00;16.88;;;4.95;;
47021;SDS011;32779;52.264;6.154;2022-11-23T16:50:52;10.30;;;3.38;;
47021;SDS011;32779;52.264;6.154;2022-11-23T16:53:19;9.85;;;3.53;;
47021;SDS011;32779;52.264;6.154;2022-11-23T16:55:46;10.85;;;3.65;;
47021;SDS011;32779;52.264;6.154;2022-11-23T16:58:16;13.75;;;4.75;;
47021;SDS011;32779;52.264;6.154;2022-11-23T17:00:42;11.77;;;3.35;;
47021;SDS011;32779;52.264;6.154;2022-11-23T17:03:14;10.05;;;2.75;;
47021;SDS011;32779;52.264;6.154;2022-11-23T17:05:43;7.95;;;2.78;;
47021;SDS011;32779;52.264;6.154;2022-11-23T17:08:09;11.23;;;2.42;;
47021;SDS011;32779;52.264;6.154;2022-11-23T17:10:35;10.93;;;3.30;;
47021;SDS011;32779;52.264;6.154;2022-11-23T17:13:02;9.77;;;4.03;;
47021;SDS011;32779;52.264;6.154;2022-11-23T17:15:30;12.77;;;3.30;;
47021;SDS011;32779;52.264;6.154;2022-11-23T17:17:56;13.98;;;4.80;;
47021;SDS011;32779;52.264;6.154;2022-11-23T17:20:21;14.63;;;5.72;;
47021;SDS011;32779;52.264;6.154;2022-11-23T17:22:48;11.77;;;3.70;;